Time,TemperatureF,DewpointF,PressureIn,WindDirection,WindDirectionDegrees,WindSpeedMPH,WindSpeedGustMPH,Humidity,HourlyPrecipIn,Conditions,Clouds,dailyrainin,SoftwareType,DateUTC
2015-04-25 00:03:00,51.7,39.0,29.59,NW,315,4.7,5.4,62,0.00,,,0.00,WUHU216HW,2015-04-25 06:03:00,
2015-04-25 00:08:00,51.7,39.0,29.59,NW,315,1.8,5.4,62,0.00,,,0.00,WUHU216HW,2015-04-25 06:08:00,
2015-04-25 00:13:00,51.5,40.1,29.59,WNW,293,3.6,4.9,65,0.00,,,0.00,WUHU216HW,2015-04-25 06:13:00,
2015-04-25 00:18:00,51.3,39.5,29.59,WSW,248,3.8,4.3,64,0.00,,,0.00,WUHU216HW,2015-04-25 06:18:00,
2015-04-25 00:23:00,51.3,40.7,29.60,NW,315,3.4,4.3,67,0.00,,,0.00,WUHU216HW,2015-04-25 06:23:00,
2015-04-25 00:28:00,51.1,39.7,29.60,West,270,0.9,4.7,65,0.00,,,0.00,WUHU216HW,2015-04-25 06:28:00,
2015-04-25 00:33:00,50.9,40.3,29.59,North,0,1.8,5.1,67,0.00,,,0.00,WUHU216HW,2015-04-25 06:33:00,
2015-04-25 00:38:00,50.9,40.3,29.60,NW,315,1.1,5.1,67,0.00,,,0.00,WUHU216HW,2015-04-25 06:38:00,
2015-04-25 00:43:00,50.8,39.8,29.60,WNW,293,1.6,3.1,66,0.00,,,0.00,WUHU216HW,2015-04-25 06:43:00,
2015-04-25 00:48:00,50.9,40.8,29.60,WSW,248,4.7,5.4,68,0.00,,,0.00,WUHU216HW,2015-04-25 06:48:00,
2015-04-25 00:53:00,50.8,40.6,29.60,WNW,293,1.3,5.4,68,0.00,,,0.00,WUHU216HW,2015-04-25 06:53:00,
2015-04-25 00:58:00,50.8,40.6,29.59,NNW,338,4.7,5.1,68,0.00,,,0.00,WUHU216HW,2015-04-25 06:58:00,
2015-04-25 01:03:00,50.8,40.6,29.59,West,270,4.7,5.1,68,0.00,,,0.00,WUHU216HW,2015-04-25 07:03:00,
2015-04-25 01:08:00,50.4,41.4,29.59,NW,315,3.8,4.7,71,0.00,,,0.00,WUHU216HW,2015-04-25 07:08:00,
2015-04-25 01:13:00,50.4,41.0,29.60,WNW,293,4.0,4.3,70,0.00,,,0.00,WUHU216HW,2015-04-25 07:13:00,
2015-04-25 01:18:00,50.0,40.7,29.60,WNW,293,2.7,4.3,70,0.00,,,0.00,WUHU216HW,2015-04-25 07:18:00,
2015-04-25 01:23:00,50.0,41.1,29.60,North,0,1.1,3.8,71,0.00,,,0.00,WUHU216HW,2015-04-25 07:23:00,
2015-04-25 01:28:00,49.7,41.1,29.60,North,0,1.8,3.6,72,0.00,,,0.00,WUHU216HW,2015-04-25 07:28:00,
2015-04-25 01:33:00,49.5,41.5,29.59,North,0,3.4,5.4,74,0.00,,,0.00,WUHU216HW,2015-04-25 07:33:00,
2015-04-25 01:38:00,49.3,41.7,29.59,NNE,23,4.7,5.4,75,0.00,,,0.00,WUHU216HW,2015-04-25 07:38:00,
2015-04-25 01:43:00,49.0,41.3,29.60,North,0,5.1,5.4,75,0.00,,,0.00,WUHU216HW,2015-04-25 07:43:00,
2015-04-25 01:48:00,49.0,41.3,29.60,North,0,2.9,5.1,75,0.00,,,0.00,WUHU216HW,2015-04-25 07:48:00,
2015-04-25 01:53:00,48.8,41.1,29.61,North,0,2.7,4.7,75,0.00,,,0.00,WUHU216HW,2015-04-25 07:53:00,
2015-04-25 01:58:00,48.6,41.0,29.61,North,0,5.4,5.4,75,0.00,,,0.00,WUHU216HW,2015-04-25 07:58:00,
2015-04-25 02:03:00,48.6,41.0,29.61,NNW,338,2.7,5.4,75,0.00,,,0.00,WUHU216HW,2015-04-25 08:03:00,
2015-04-25 02:08:00,48.6,41.7,29.62,NW,315,2.7,4.0,77,0.00,,,0.00,WUHU216HW,2015-04-25 08:08:00,
2015-04-25 02:13:00,48.6,41.0,29.63,North,0,1.1,4.7,75,0.00,,,0.00,WUHU216HW,2015-04-25 08:13:00,
2015-04-25 02:18:00,48.8,41.5,29.63,West,270,3.4,4.7,76,0.00,,,0.00,WUHU216HW,2015-04-25 08:18:00,
2015-04-25 02:23:00,48.6,41.0,29.63,West,270,3.1,6.9,75,0.00,,,0.00,WUHU216HW,2015-04-25 08:23:00,
2015-04-25 02:28:00,48.2,40.2,29.64,NW,315,5.4,6.9,74,0.00,,,0.00,WUHU216HW,2015-04-25 08:28:00,
2015-04-25 02:33:00,47.9,39.6,29.64,WNW,293,3.1,6.7,73,0.00,,,0.00,WUHU216HW,2015-04-25 08:33:00,
2015-04-25 02:38:00,47.7,39.4,29.64,WNW,293,3.8,6.0,73,0.00,,,0.00,WUHU216HW,2015-04-25 08:38:00,
2015-04-25 02:43:00,47.5,39.6,29.64,NNW,338,3.4,6.0,74,0.00,,,0.00,WUHU216HW,2015-04-25 08:43:00,
2015-04-25 02:48:00,47.3,39.1,29.64,West,270,3.4,7.2,73,0.00,,,0.00,WUHU216HW,2015-04-25 08:48:00,
2015-04-25 02:53:00,47.2,39.0,29.65,ESE,113,2.2,7.2,73,0.00,,,0.00,WUHU216HW,2015-04-25 08:53:00,
2015-04-25 02:58:00,47.2,39.2,29.64,NW,315,4.7,6.3,74,0.00,,,0.00,WUHU216HW,2015-04-25 08:58:00,
2015-04-25 03:03:00,47.0,39.2,29.64,NW,315,3.6,5.4,74,0.00,,,0.00,WUHU216HW,2015-04-25 09:03:00,
2015-04-25 03:08:00,47.0,39.2,29.64,WNW,293,5.4,5.4,74,0.00,,,0.00,WUHU216HW,2015-04-25 09:08:00,
2015-04-25 03:13:00,46.8,39.3,29.65,West,270,1.1,6.5,75,0.00,,,0.00,WUHU216HW,2015-04-25 09:13:00,
2015-04-25 03:18:00,46.6,38.8,29.65,WNW,293,2.5,6.5,74,0.00,,,0.00,WUHU216HW,2015-04-25 09:18:00,
2015-04-25 03:23:00,46.4,39.0,29.65,NW,315,1.6,2.5,75,0.00,,,0.00,WUHU216HW,2015-04-25 09:23:00,
2015-04-25 03:28:00,46.4,39.0,29.65,NW,315,2.0,2.9,75,0.00,,,0.00,WUHU216HW,2015-04-25 09:28:00,
2015-04-25 03:33:00,46.3,39.2,29.66,West,270,2.5,4.5,76,0.00,,,0.00,WUHU216HW,2015-04-25 09:33:00,
2015-04-25 03:38:00,46.1,38.6,29.66,West,270,2.0,5.4,75,0.00,,,0.00,WUHU216HW,2015-04-25 09:38:00,
2015-04-25 03:43:00,45.9,38.8,29.66,West,270,3.1,6.0,76,0.00,,,0.00,WUHU216HW,2015-04-25 09:43:00,
2015-04-25 03:48:00,45.7,38.6,29.66,WNW,293,3.4,6.0,76,0.00,,,0.00,WUHU216HW,2015-04-25 09:48:00,
2015-04-25 03:53:00,45.5,38.4,29.66,WSW,248,1.3,4.5,76,0.00,,,0.00,WUHU216HW,2015-04-25 09:53:00,
2015-04-25 03:58:00,45.4,38.3,29.66,WSW,248,4.0,4.5,76,0.00,,,0.00,WUHU216HW,2015-04-25 09:58:00,
2015-04-25 04:03:00,45.4,37.9,29.67,WNW,293,2.2,4.0,75,0.00,,,0.00,WUHU216HW,2015-04-25 10:03:00,
2015-04-25 04:08:00,45.2,37.7,29.67,WSW,248,1.8,3.1,75,0.00,,,0.00,WUHU216HW,2015-04-25 10:08:00,
2015-04-25 04:13:00,45.2,38.1,29.67,West,270,1.8,2.5,76,0.00,,,0.00,WUHU216HW,2015-04-25 10:13:00,
2015-04-25 04:18:00,45.0,37.9,29.67,WNW,293,1.1,3.1,76,0.00,,,0.00,WUHU216HW,2015-04-25 10:18:00,
2015-04-25 04:23:00,45.0,37.9,29.67,West,270,2.5,3.1,76,0.00,,,0.00,WUHU216HW,2015-04-25 10:23:00,
2015-04-25 04:28:00,45.0,37.9,29.67,NNW,338,1.1,3.4,76,0.00,,,0.00,WUHU216HW,2015-04-25 10:28:00,
2015-04-25 04:33:00,44.8,37.7,29.68,NW,315,1.3,3.4,76,0.00,,,0.00,WUHU216HW,2015-04-25 10:33:00,
2015-04-25 04:38:00,44.6,37.2,29.68,WNW,293,1.8,2.9,75,0.00,,,0.00,WUHU216HW,2015-04-25 10:38:00,
2015-04-25 04:43:00,44.6,37.2,29.68,WNW,293,0.0,2.9,75,0.00,,,0.00,WUHU216HW,2015-04-25 10:43:00,
2015-04-25 04:48:00,44.6,37.2,29.68,West,270,1.8,1.8,75,0.00,,,0.00,WUHU216HW,2015-04-25 10:48:00,
2015-04-25 04:53:00,44.8,37.4,29.68,NW,315,0.9,3.4,75,0.00,,,0.00,WUHU216HW,2015-04-25 10:53:00,
2015-04-25 04:58:00,44.8,37.4,29.69,WNW,293,4.0,4.0,75,0.00,,,0.00,WUHU216HW,2015-04-25 10:58:00,
2015-04-25 05:03:00,44.6,37.2,29.68,WNW,293,1.8,4.0,75,0.00,,,0.00,WUHU216HW,2015-04-25 11:03:00,
2015-04-25 05:08:00,44.6,37.5,29.68,West,270,2.7,2.7,76,0.00,,,0.00,WUHU216HW,2015-04-25 11:08:00,
2015-04-25 05:13:00,44.6,37.2,29.69,WNW,293,2.9,2.9,75,0.00,,,0.00,WUHU216HW,2015-04-25 11:13:00,
2015-04-25 05:18:00,44.6,37.2,29.69,WNW,293,1.3,3.8,75,0.00,,,0.00,WUHU216HW,2015-04-25 11:18:00,
2015-04-25 05:23:00,44.5,37.0,29.69,WSW,248,0.7,3.8,75,0.00,,,0.00,WUHU216HW,2015-04-25 11:23:00,
2015-04-25 05:28:00,44.5,37.4,29.69,WNW,293,4.0,4.5,76,0.00,,,0.00,WUHU216HW,2015-04-25 11:28:00,
2015-04-25 05:33:00,44.5,37.0,29.69,West,270,0.2,4.5,75,0.00,,,0.00,WUHU216HW,2015-04-25 11:33:00,
2015-04-25 05:38:00,44.5,37.0,29.70,West,270,2.5,4.0,75,0.00,,,0.00,WUHU216HW,2015-04-25 11:38:00,
2015-04-25 05:43:00,44.5,37.0,29.70,West,270,1.8,5.1,75,0.00,,,0.00,WUHU216HW,2015-04-25 11:43:00,
2015-04-25 05:48:00,44.3,37.2,29.70,West,270,4.7,5.1,76,0.00,,,0.00,WUHU216HW,2015-04-25 11:48:00,
2015-04-25 05:53:00,44.3,37.2,29.70,WSW,248,3.4,4.7,76,0.00,,,0.00,WUHU216HW,2015-04-25 11:53:00,
2015-04-25 05:58:00,44.1,36.6,29.70,West,270,4.0,4.0,75,0.00,,,0.00,WUHU216HW,2015-04-25 11:58:00,
2015-04-25 06:03:00,44.1,37.0,29.70,West,270,2.5,4.9,76,0.00,,,0.00,WUHU216HW,2015-04-25 12:03:00,
2015-04-25 06:08:00,43.9,36.8,29.70,WSW,248,2.2,4.9,76,0.00,,,0.00,WUHU216HW,2015-04-25 12:08:00,
2015-04-25 06:13:00,43.7,37.0,29.71,West,270,3.8,5.4,77,0.00,,,0.00,WUHU216HW,2015-04-25 12:13:00,
2015-04-25 06:18:00,43.7,37.0,29.72,West,270,4.0,5.4,77,0.00,,,0.00,WUHU216HW,2015-04-25 12:18:00,
2015-04-25 06:23:00,43.6,36.8,29.72,WNW,293,4.7,4.7,77,0.00,,,0.00,WUHU216HW,2015-04-25 12:23:00,
2015-04-25 06:28:00,43.6,36.8,29.72,WSW,248,4.5,4.7,77,0.00,,,0.00,WUHU216HW,2015-04-25 12:28:00,
2015-04-25 06:33:00,43.6,36.8,29.72,WNW,293,1.1,4.5,77,0.00,,,0.00,WUHU216HW,2015-04-25 12:33:00,
2015-04-25 06:38:00,43.4,36.6,29.72,NW,315,1.3,4.0,77,0.00,,,0.00,WUHU216HW,2015-04-25 12:38:00,
2015-04-25 06:43:00,43.2,36.5,29.72,WNW,293,5.4,5.4,77,0.00,,,0.00,WUHU216HW,2015-04-25 12:43:00,
2015-04-25 06:48:00,42.8,36.1,29.71,NNW,338,1.6,5.4,77,0.00,,,0.00,WUHU216HW,2015-04-25 12:48:00,
2015-04-25 06:53:00,42.8,36.1,29.72,NNW,338,2.0,3.4,77,0.00,,,0.00,WUHU216HW,2015-04-25 12:53:00,
2015-04-25 06:58:00,42.8,36.1,29.72,North,0,2.0,3.8,77,0.00,,,0.00,WUHU216HW,2015-04-25 12:58:00,
2015-04-25 07:03:00,42.8,36.1,29.72,NW,315,2.9,3.8,77,0.00,,,0.00,WUHU216HW,2015-04-25 13:03:00,
2015-04-25 07:08:00,42.8,36.1,29.73,NNW,338,1.1,2.9,77,0.00,,,0.00,WUHU216HW,2015-04-25 13:08:00,
2015-04-25 07:13:00,42.8,36.1,29.73,NNW,338,1.3,3.4,77,0.00,,,0.00,WUHU216HW,2015-04-25 13:13:00,
2015-04-25 07:18:00,42.8,36.1,29.73,NW,315,1.8,5.6,77,0.00,,,0.00,WUHU216HW,2015-04-25 13:18:00,
2015-04-25 07:23:00,42.8,36.1,29.73,WNW,293,0.9,5.6,77,0.00,,,0.00,WUHU216HW,2015-04-25 13:23:00,
2015-04-25 07:28:00,42.8,36.1,29.73,NW,315,0.0,3.6,77,0.00,,,0.00,WUHU216HW,2015-04-25 13:28:00,
2015-04-25 07:33:00,42.8,36.1,29.74,WNW,293,0.4,2.7,77,0.00,,,0.00,WUHU216HW,2015-04-25 13:33:00,
2015-04-25 07:38:00,42.8,36.1,29.74,WSW,248,1.8,2.2,77,0.00,,,0.00,WUHU216HW,2015-04-25 13:38:00,
2015-04-25 07:43:00,42.8,36.1,29.74,WSW,248,3.4,3.4,77,0.00,,,0.00,WUHU216HW,2015-04-25 13:43:00,
2015-04-25 07:48:00,42.8,36.1,29.74,NW,315,2.5,3.4,77,0.00,,,0.00,WUHU216HW,2015-04-25 13:48:00,
2015-04-25 07:53:00,42.7,35.9,29.74,NW,315,2.5,2.9,77,0.00,,,0.00,WUHU216HW,2015-04-25 13:53:00,
2015-04-25 07:58:00,42.7,36.3,29.74,NW,315,2.9,5.8,78,0.00,,,0.00,WUHU216HW,2015-04-25 13:58:00,
2015-04-25 08:03:00,42.7,35.9,29.74,NW,315,0.9,5.8,77,0.00,,,0.00,WUHU216HW,2015-04-25 14:03:00,
2015-04-25 08:08:00,42.7,36.3,29.74,NNW,338,2.5,2.5,78,0.00,,,0.00,WUHU216HW,2015-04-25 14:08:00,
2015-04-25 08:13:00,42.5,36.1,29.75,North,0,2.5,2.5,78,0.00,,,0.00,WUHU216HW,2015-04-25 14:13:00,
2015-04-25 08:18:00,42.1,36.0,29.75,North,0,3.4,4.3,79,0.00,,,0.00,WUHU216HW,2015-04-25 14:18:00,
2015-04-25 08:23:00,41.9,35.8,29.75,NE,45,3.8,4.3,79,0.00,,,0.00,WUHU216HW,2015-04-25 14:23:00,
2015-04-25 08:28:00,41.8,36.0,29.75,NNE,23,4.9,4.9,80,0.00,,,0.00,WUHU216HW,2015-04-25 14:28:00,
2015-04-25 08:33:00,41.6,35.8,29.75,WSW,248,4.7,9.6,80,0.00,,,0.00,WUHU216HW,2015-04-25 14:33:00,
2015-04-25 08:38:00,41.8,36.0,29.75,West,270,4.0,9.6,80,0.00,,,0.00,WUHU216HW,2015-04-25 14:38:00,
2015-04-25 08:43:00,41.9,35.8,29.75,WSW,248,2.2,6.7,79,0.00,,,0.00,WUHU216HW,2015-04-25 14:43:00,
2015-04-25 08:48:00,42.1,36.0,29.76,WSW,248,1.1,3.8,79,0.00,,,0.00,WUHU216HW,2015-04-25 14:48:00,
2015-04-25 08:53:00,42.5,36.7,29.76,WNW,293,4.3,4.3,80,0.00,,,0.00,WUHU216HW,2015-04-25 14:53:00,